sensor_id;sensor_type;location;lat;lon;timestamp;P1;durP1;ratioP1;P2;durP2;ratioP2
6438;SDS011;3252;52.540;13.290;2023-05-10T00:00:13;6.40;;;3.50;;
6438;SDS011;3252;52.540;13.290;2023-05-10T00:02:17;7.80;;;3.70;;
6438;SDS011;3252;52.540;13.290;2023-05-10T00:04:19;8.30;;;3.60;;
6438;SDS011;3252;52.540;13.290;2023-05-10T00:06:21;7.53;;;3.90;;
6438;SDS011;3252;52.540;13.290;2023-05-10T00:08:24;7.90;;;3.93;;
6438;SDS011;3252;52.540;13.290;2023-05-10T00:10:26;5.90;;;3.60;;
6438;SDS011;3252;52.540;13.290;2023-05-10T00:12:29;8.43;;;3.47;;
6438;SDS011;3252;52.540;13.290;2023-05-10T00:14:31;5.23;;;3.70;;
6438;SDS011;3252;52.540;13.290;2023-05-10T00:16:34;6.27;;;3.70;;
6438;SDS011;3252;52.540;13.290;2023-05-10T00:18:36;8.13;;;3.70;;
6438;SDS011;3252;52.540;13.290;2023-05-10T00:20:38;9.73;;;3.80;;
6438;SDS011;3252;52.540;13.290;2023-05-10T00:22:40;7.67;;;4.40;;
6438;SDS011;3252;52.540;13.290;2023-05-10T00:24:42;6.37;;;4.00;;
6438;SDS011;3252;52.540;13.290;2023-05-10T00:26:45;5.33;;;3.70;;
6438;SDS011;3252;52.540;13.290;2023-05-10T00:28:49;6.37;;;4.30;;
6438;SDS011;3252;52.540;13.290;2023-05-10T00:30:52;6.80;;;3.90;;
6438;SDS011;3252;52.540;13.290;2023-05-10T00:32:54;8.93;;;4.00;;
6438;SDS011;3252;52.540;13.290;2023-05-10T00:34:56;7.03;;;4.10;;
6438;SDS011;3252;52.540;13.290;2023-05-10T00:36:58;5.40;;;3.50;;
6438;SDS011;3252;52.540;13.290;2023-05-10T00:39:01;7.00;;;4.20;;
6438;SDS011;3252;52.540;13.290;2023-05-10T00:41:03;6.47;;;3.73;;
6438;SDS011;3252;52.540;13.290;2023-05-10T00:43:08;6.80;;;3.93;;
6438;SDS011;3252;52.540;13.290;2023-05-10T00:45:11;6.77;;;3.80;;
6438;SDS011;3252;52.540;13.290;2023-05-10T00:47:15;7.43;;;3.93;;
6438;SDS011;3252;52.540;13.290;2023-05-10T00:49:17;9.20;;;4.03;;
6438;SDS011;3252;52.540;13.290;2023-05-10T00:51:21;8.30;;;4.07;;
6438;SDS011;3252;52.540;13.290;2023-05-10T00:53:24;5.40;;;3.80;;
6438;SDS011;3252;52.540;13.290;2023-05-10T00:55:26;8.17;;;4.10;;
6438;SDS011;3252;52.540;13.290;2023-05-10T00:57:29;5.40;;;3.90;;
6438;SDS011;3252;52.540;13.290;2023-05-10T00:59:31;7.83;;;4.10;;
6438;SDS011;3252;52.540;13.290;2023-05-10T01:01:35;9.00;;;4.07;;
6438;SDS011;3252;52.540;13.290;2023-05-10T01:03:37;10.10;;;3.93;;
6438;SDS011;3252;52.540;13.290;2023-05-10T01:05:41;6.83;;;4.13;;
6438;SDS011;3252;52.540;13.290;2023-05-10T01:07:44;5.67;;;4.20;;
6438;SDS011;3252;52.540;13.290;2023-05-10T01:09:46;7.77;;;4.23;;
6438;SDS011;3252;52.540;13.290;2023-05-10T01:11:49;6.57;;;4.33;;
6438;SDS011;3252;52.540;13.290;2023-05-10T01:13:52;6.90;;;4.23;;
6438;SDS011;3252;52.540;13.290;2023-05-10T01:15:57;7.00;;;4.50;;
6438;SDS011;3252;52.540;13.290;2023-05-10T01:18:03;8.47;;;4.40;;
6438;SDS011;3252;52.540;13.290;2023-05-10T01:20:06;6.57;;;4.30;;
6438;SDS011;3252;52.540;13.290;2023-05-10T01:22:15;6.63;;;4.20;;
6438;SDS011;3252;52.540;13.290;2023-05-10T01:27:25;7.30;;;4.23;;
6438;SDS011;3252;52.540;13.290;2023-05-10T01:29:53;10.43;;;4.40;;
6438;SDS011;3252;52.540;13.290;2023-05-10T01:32:22;9.30;;;4.03;;
6438;SDS011;3252;52.540;13.290;2023-05-10T01:34:32;9.37;;;4.43;;
6438;SDS011;3252;52.540;13.290;2023-05-10T01:36:43;6.63;;;4.30;;
6438;SDS011;3252;52.540;13.290;2023-05-10T01:38:50;6.80;;;4.67;;
6438;SDS011;3252;52.540;13.290;2023-05-10T01:41:01;9.33;;;4.30;;
6438;SDS011;3252;52.540;13.290;2023-05-10T01:43:16;7.00;;;4.17;;
6438;SDS011;3252;52.540;13.290;2023-05-10T01:45:33;7.70;;;4.17;;
6438;SDS011;3252;52.540;13.290;2023-05-10T01:47:42;7.37;;;4.40;;
6438;SDS011;3252;52.540;13.290;2023-05-10T01:49:47;8.53;;;4.23;;
6438;SDS011;3252;52.540;13.290;2023-05-10T01:51:53;8.67;;;4.70;;
6438;SDS011;3252;52.540;13.290;2023-05-10T01:54:01;6.73;;;4.10;;
6438;SDS011;3252;52.540;13.290;2023-05-10T01:56:05;8.53;;;4.30;;
6438;SDS011;3252;52.540;13.290;2023-05-10T01:58:13;6.47;;;4.10;;
6438;SDS011;3252;52.540;13.290;2023-05-10T02:00:17;6.43;;;4.70;;
6438;SDS011;3252;52.540;13.290;2023-05-10T02:02:21;8.70;;;4.20;;
6438;SDS011;3252;52.540;13.290;2023-05-10T02:04:27;6.47;;;4.10;;
6438;SDS011;3252;52.540;13.290;2023-05-10T02:06:31;6.13;;;3.70;;
6438;SDS011;3252;52.540;13.290;2023-05-10T02:08:34;7.60;;;4.47;;
6438;SDS011;3252;52.540;13.290;2023-05-10T02:10:38;6.83;;;4.50;;
6438;SDS011;3252;52.540;13.290;2023-05-10T02:12:43;9.10;;;4.53;;
6438;SDS011;3252;52.540;13.290;2023-05-10T02:14:49;7.87;;;4.20;;
6438;SDS011;3252;52.540;13.290;2023-05-10T02:16:54;8.23;;;4.00;;
6438;SDS011;3252;52.540;13.290;2023-05-10T02:18:57;9.63;;;4.50;;
6438;SDS011;3252;52.540;13.290;2023-05-10T02:21:04;5.00;;;3.70;;
6438;SDS011;3252;52.540;13.290;2023-05-10T02:23:06;11.13;;;4.10;;
6438;SDS011;3252;52.540;13.290;2023-05-10T02:25:10;5.77;;;3.77;;
6438;SDS011;3252;52.540;13.290;2023-05-10T02:27:14;7.13;;;3.83;;
6438;SDS011;3252;52.540;13.290;2023-05-10T02:29:18;6.13;;;4.10;;
6438;SDS011;3252;52.540;13.290;2023-05-10T02:31:21;9.10;;;4.03;;
6438;SDS011;3252;52.540;13.290;2023-05-10T02:33:24;6.87;;;4.00;;
6438;SDS011;3252;52.540;13.290;2023-05-10T02:35:28;7.07;;;3.60;;
6438;SDS011;3252;52.540;13.290;2023-05-10T02:37:32;8.13;;;4.37;;
6438;SDS011;3252;52.540;13.290;2023-05-10T02:39:37;6.27;;;4.00;;
6438;SDS011;3252;52.540;13.290;2023-05-10T02:41:44;8.87;;;4.53;;
6438;SDS011;3252;52.540;13.290;2023-05-10T02:43:48;5.30;;;4.33;;
6438;SDS011;3252;52.540;13.290;2023-05-10T02:45:52;7.87;;;4.03;;
6438;SDS011;3252;52.540;13.290;2023-05-10T02:47:54;5.60;;;4.20;;
6438;SDS011;3252;52.540;13.290;2023-05-10T02:49:57;5.63;;;3.90;;
6438;SDS011;3252;52.540;13.290;2023-05-10T02:52:01;5.17;;;4.30;;
6438;SDS011;3252;52.540;13.290;2023-05-10T02:54:09;8.50;;;4.20;;
6438;SDS011;3252;52.540;13.290;2023-05-10T02:56:14;6.60;;;4.30;;
6438;SDS011;3252;52.540;13.290;2023-05-10T02:58:22;7.17;;;4.40;;
6438;SDS011;3252;52.540;13.290;2023-05-10T03:00:24;6.73;;;4.10;;
6438;SDS011;3252;52.540;13.290;2023-05-10T03:02:26;6.47;;;3.90;;
6438;SDS011;3252;52.540;13.290;2023-05-10T03:04:30;11.50;;;4.43;;
6438;SDS011;3252;52.540;13.290;2023-05-10T03:06:33;6.43;;;3.90;;
6438;SDS011;3252;52.540;13.290;2023-05-10T03:08:36;8.27;;;4.17;;
6438;SDS011;3252;52.540;13.290;2023-05-10T03:10:54;7.93;;;4.10;;
6438;SDS011;3252;52.540;13.290;2023-05-10T03:13:06;6.63;;;4.10;;
6438;SDS011;3252;52.540;13.290;2023-05-10T03:15:17;12.03;;;3.70;;
6438;SDS011;3252;52.540;13.290;2023-05-10T03:17:25;8.67;;;4.07;;
6438;SDS011;3252;52.540;13.290;2023-05-10T03:19:32;5.10;;;4.00;;
6438;SDS011;3252;52.540;13.290;2023-05-10T03:22:10;9.93;;;4.03;;
6438;SDS011;3252;52.540;13.290;2023-05-10T03:24:14;8.50;;;4.33;;
6438;SDS011;3252;52.540;13.290;2023-05-10T03:26:23;6.20;;;3.97;;
6438;SDS011;3252;52.540;13.290;2023-05-10T03:28:33;8.57;;;4.03;;
6438;SDS011;3252;52.540;13.290;2023-05-10T03:30:37;8.37;;;3.93;;
6438;SDS011;3252;52.540;13.290;2023-05-10T03:32:41;8.00;;;4.00;;
6438;SDS011;3252;52.540;13.290;2023-05-10T03:34:43;5.60;;;3.53;;
6438;SDS011;3252;52.540;13.290;2023-05-10T03:36:46;6.80;;;3.97;;
6438;SDS011;3252;52.540;13.290;2023-05-10T03:38:49;7.43;;;3.77;;
6438;SDS011;3252;52.540;13.290;2023-05-10T03:40:51;7.57;;;3.80;;
6438;SDS011;3252;52.540;13.290;2023-05-10T03:42:55;8.03;;;3.80;;
6438;SDS011;3252;52.540;13.290;2023-05-10T03:44:58;5.77;;;4.00;;
6438;SDS011;3252;52.540;13.290;2023-05-10T03:47:01;9.60;;;4.10;;
6438;SDS011;3252;52.540;13.290;2023-05-10T03:49:04;7.33;;;3.70;;
6438;SDS011;3252;52.540;13.290;2023-05-10T03:51:06;6.87;;;3.87;;
6438;SDS011;3252;52.540;13.290;2023-05-10T03:53:08;7.23;;;4.10;;
6438;SDS011;3252;52.540;13.290;2023-05-10T03:55:10;5.20;;;3.70;;
6438;SDS011;3252;52.540;13.290;2023-05-10T03:57:12;5.87;;;3.90;;
6438;SDS011;3252;52.540;13.290;2023-05-10T03:59:16;7.17;;;3.83;;
6438;SDS011;3252;52.540;13.290;2023-05-10T04:01:18;6.33;;;3.70;;
6438;SDS011;3252;52.540;13.290;2023-05-10T04:03:20;8.90;;;4.40;;
6438;SDS011;3252;52.540;13.290;2023-05-10T04:05:23;8.87;;;3.67;;
6438;SDS011;3252;52.540;13.290;2023-05-10T04:07:27;5.37;;;3.70;;
6438;SDS011;3252;52.540;13.290;2023-05-10T04:09:29;11.60;;;5.57;;
6438;SDS011;3252;52.540;13.290;2023-05-10T04:11:33;6.43;;;3.60;;
6438;SDS011;3252;52.540;13.290;2023-05-10T04:13:35;6.97;;;3.70;;
6438;SDS011;3252;52.540;13.290;2023-05-10T04:15:39;10.73;;;4.10;;
6438;SDS011;3252;52.540;13.290;2023-05-10T04:17:41;7.73;;;4.00;;
6438;SDS011;3252;52.540;13.290;2023-05-10T04:19:44;8.13;;;4.07;;
6438;SDS011;3252;52.540;13.290;2023-05-10T04:21:46;7.73;;;3.60;;
6438;SDS011;3252;52.540;13.290;2023-05-10T04:23:49;8.17;;;4.30;;
6438;SDS011;3252;52.540;13.290;2023-05-10T04:25:52;6.20;;;3.60;;
6438;SDS011;3252;52.540;13.290;2023-05-10T04:27:54;6.03;;;3.50;;
6438;SDS011;3252;52.540;13.290;2023-05-10T04:29:56;8.00;;;3.77;;
6438;SDS011;3252;52.540;13.290;2023-05-10T04:32:00;6.87;;;3.87;;
6438;SDS011;3252;52.540;13.290;2023-05-10T04:34:02;7.63;;;4.17;;
6438;SDS011;3252;52.540;13.290;2023-05-10T04:36:04;7.97;;;4.20;;
6438;SDS011;3252;52.540;13.290;2023-05-10T04:38:07;6.67;;;3.63;;
6438;SDS011;3252;52.540;13.290;2023-05-10T04:40:10;7.07;;;3.67;;
6438;SDS011;3252;52.540;13.290;2023-05-10T04:42:13;7.63;;;4.13;;
6438;SDS011;3252;52.540;13.290;2023-05-10T04:44:16;5.47;;;3.77;;
6438;SDS011;3252;52.540;13.290;2023-05-10T04:46:18;6.60;;;3.80;;
6438;SDS011;3252;52.540;13.290;2023-05-10T04:48:22;8.50;;;3.63;;
6438;SDS011;3252;52.540;13.290;2023-05-10T04:50:24;8.50;;;3.70;;
6438;SDS011;3252;52.540;13.290;2023-05-10T04:52:26;7.53;;;3.53;;
6438;SDS011;3252;52.540;13.290;2023-05-10T04:54:28;4.37;;;3.10;;
6438;SDS011;3252;52.540;13.290;2023-05-10T04:56:30;8.30;;;3.40;;
6438;SDS011;3252;52.540;13.290;2023-05-10T04:58:33;6.03;;;3.40;;
6438;SDS011;3252;52.540;13.290;2023-05-10T05:00:35;12.53;;;4.13;;
6438;SDS011;3252;52.540;13.290;2023-05-10T05:02:37;7.43;;;3.40;;
6438;SDS011;3252;52.540;13.290;2023-05-10T05:04:40;7.10;;;3.97;;
6438;SDS011;3252;52.540;13.290;2023-05-10T05:06:42;8.73;;;3.37;;
6438;SDS011;3252;52.540;13.290;2023-05-10T05:08:45;12.03;;;3.50;;
6438;SDS011;3252;52.540;13.290;2023-05-10T05:10:47;8.03;;;3.57;;
6438;SDS011;3252;52.540;13.290;2023-05-10T05:12:50;6.63;;;3.43;;
6438;SDS011;3252;52.540;13.290;2023-05-10T05:14:53;5.13;;;3.33;;
6438;SDS011;3252;52.540;13.290;2023-05-10T05:16:55;7.53;;;3.03;;
6438;SDS011;3252;52.540;13.290;2023-05-10T05:18:57;8.93;;;3.43;;
6438;SDS011;3252;52.540;13.290;2023-05-10T05:21:02;6.80;;;3.50;;
6438;SDS011;3252;52.540;13.290;2023-05-10T05:23:04;6.00;;;3.30;;
6438;SDS011;3252;52.540;13.290;2023-05-10T05:25:07;9.23;;;3.07;;
6438;SDS011;3252;52.540;13.290;2023-05-10T05:27:10;10.40;;;3.07;;
6438;SDS011;3252;52.540;13.290;2023-05-10T05:29:12;4.90;;;3.37;;
6438;SDS011;3252;52.540;13.290;2023-05-10T05:31:14;6.20;;;3.07;;
6438;SDS011;3252;52.540;13.290;2023-05-10T05:33:16;5.83;;;3.20;;
6438;SDS011;3252;52.540;13.290;2023-05-10T05:35:18;4.40;;;3.00;;
6438;SDS011;3252;52.540;13.290;2023-05-10T05:37:22;12.23;;;3.30;;
6438;SDS011;3252;52.540;13.290;2023-05-10T05:39:24;5.07;;;3.10;;
6438;SDS011;3252;52.540;13.290;2023-05-10T05:41:27;6.07;;;3.30;;
6438;SDS011;3252;52.540;13.290;2023-05-10T05:43:29;5.10;;;2.97;;
6438;SDS011;3252;52.540;13.290;2023-05-10T05:45:31;8.43;;;3.17;;
6438;SDS011;3252;52.540;13.290;2023-05-10T05:47:34;5.03;;;2.80;;
6438;SDS011;3252;52.540;13.290;2023-05-10T05:49:37;8.63;;;3.03;;
6438;SDS011;3252;52.540;13.290;2023-05-10T05:51:39;7.53;;;3.20;;
6438;SDS011;3252;52.540;13.290;2023-05-10T05:53:43;6.90;;;3.10;;
6438;SDS011;3252;52.540;13.290;2023-05-10T05:55:50;5.93;;;2.80;;
6438;SDS011;3252;52.540;13.290;2023-05-10T05:57:54;5.20;;;2.93;;
6438;SDS011;3252;52.540;13.290;2023-05-10T05:59:56;4.90;;;2.73;;
6438;SDS011;3252;52.540;13.290;2023-05-10T06:01:58;5.97;;;2.67;;
6438;SDS011;3252;52.540;13.290;2023-05-10T06:04:01;5.70;;;2.50;;
6438;SDS011;3252;52.540;13.290;2023-05-10T06:06:03;7.57;;;2.87;;
6438;SDS011;3252;52.540;13.290;2023-05-10T06:08:05;8.40;;;2.80;;
6438;SDS011;3252;52.540;13.290;2023-05-10T06:10:09;8.73;;;2.83;;
6438;SDS011;3252;52.540;13.290;2023-05-10T06:12:11;5.97;;;2.90;;
6438;SDS011;3252;52.540;13.290;2023-05-10T06:14:14;3.43;;;2.50;;
6438;SDS011;3252;52.540;13.290;2023-05-10T06:16:16;3.50;;;2.60;;
6438;SDS011;3252;52.540;13.290;2023-05-10T06:18:18;4.30;;;2.80;;
6438;SDS011;3252;52.540;13.290;2023-05-10T06:20:20;4.40;;;2.77;;
6438;SDS011;3252;52.540;13.290;2023-05-10T06:22:22;6.90;;;2.70;;
6438;SDS011;3252;52.540;13.290;2023-05-10T06:24:24;6.77;;;2.53;;
6438;SDS011;3252;52.540;13.290;2023-05-10T06:26:28;5.47;;;2.80;;
6438;SDS011;3252;52.540;13.290;2023-05-10T06:28:31;8.33;;;3.20;;
6438;SDS011;3252;52.540;13.290;2023-05-10T06:30:35;7.83;;;2.73;;
6438;SDS011;3252;52.540;13.290;2023-05-10T06:32:37;5.97;;;2.73;;
6438;SDS011;3252;52.540;13.290;2023-05-10T06:34:39;6.50;;;2.60;;
6438;SDS011;3252;52.540;13.290;2023-05-10T06:36:43;7.23;;;2.63;;
6438;SDS011;3252;52.540;13.290;2023-05-10T06:38:45;8.67;;;2.70;;
6438;SDS011;3252;52.540;13.290;2023-05-10T06:40:47;6.83;;;2.90;;
6438;SDS011;3252;52.540;13.290;2023-05-10T06:42:51;4.80;;;2.77;;
6438;SDS011;3252;52.540;13.290;2023-05-10T06:44:53;9.30;;;2.53;;
6438;SDS011;3252;52.540;13.290;2023-05-10T06:46:55;10.90;;;2.60;;
6438;SDS011;3252;52.540;13.290;2023-05-10T06:48:58;8.33;;;2.57;;
6438;SDS011;3252;52.540;13.290;2023-05-10T06:51:01;8.60;;;2.50;;
6438;SDS011;3252;52.540;13.290;2023-05-10T06:53:03;6.57;;;2.53;;
6438;SDS011;3252;52.540;13.290;2023-05-10T06:55:05;5.70;;;2.80;;
6438;SDS011;3252;52.540;13.290;2023-05-10T06:57:08;4.27;;;2.50;;
6438;SDS011;3252;52.540;13.290;2023-05-10T06:59:12;6.23;;;2.37;;
6438;SDS011;3252;52.540;13.290;2023-05-10T07:01:15;6.20;;;2.40;;
6438;SDS011;3252;52.540;13.290;2023-05-10T07:03:17;9.73;;;2.60;;
6438;SDS011;3252;52.540;13.290;2023-05-10T07:05:20;4.53;;;2.47;;
6438;SDS011;3252;52.540;13.290;2023-05-10T07:07:22;5.03;;;2.30;;
6438;SDS011;3252;52.540;13.290;2023-05-10T07:09:24;6.33;;;2.50;;
6438;SDS011;3252;52.540;13.290;2023-05-10T07:11:26;4.53;;;2.17;;
6438;SDS011;3252;52.540;13.290;2023-05-10T07:13:29;15.00;;;2.70;;
6438;SDS011;3252;52.540;13.290;2023-05-10T07:15:33;10.30;;;2.43;;
6438;SDS011;3252;52.540;13.290;2023-05-10T07:17:35;4.87;;;2.33;;
6438;SDS011;3252;52.540;13.290;2023-05-10T07:19:37;7.67;;;2.27;;
6438;SDS011;3252;52.540;13.290;2023-05-10T07:21:39;6.40;;;2.60;;
6438;SDS011;3252;52.540;13.290;2023-05-10T07:23:43;6.10;;;2.30;;
6438;SDS011;3252;52.540;13.290;2023-05-10T07:25:45;6.33;;;2.30;;
6438;SDS011;3252;52.540;13.290;2023-05-10T07:27:48;4.77;;;2.60;;
6438;SDS011;3252;52.540;13.290;2023-05-10T07:29:51;6.63;;;2.13;;
6438;SDS011;3252;52.540;13.290;2023-05-10T07:31:55;5.97;;;2.40;;
6438;SDS011;3252;52.540;13.290;2023-05-10T07:33:57;10.40;;;2.83;;
6438;SDS011;3252;52.540;13.290;2023-05-10T07:35:59;7.07;;;2.40;;
6438;SDS011;3252;52.540;13.290;2023-05-10T07:38:01;6.10;;;2.80;;
6438;SDS011;3252;52.540;13.290;2023-05-10T07:40:04;7.83;;;2.47;;
6438;SDS011;3252;52.540;13.290;2023-05-10T07:42:07;3.53;;;2.30;;
6438;SDS011;3252;52.540;13.290;2023-05-10T07:44:10;3.47;;;2.20;;
6438;SDS011;3252;52.540;13.290;2023-05-10T07:46:12;9.40;;;2.50;;
6438;SDS011;3252;52.540;13.290;2023-05-10T07:48:15;4.07;;;2.30;;
6438;SDS011;3252;52.540;13.290;2023-05-10T07:50:17;5.47;;;2.23;;
6438;SDS011;3252;52.540;13.290;2023-05-10T07:52:21;11.57;;;2.47;;
6438;SDS011;3252;52.540;13.290;2023-05-10T07:54:23;6.03;;;2.00;;
6438;SDS011;3252;52.540;13.290;2023-05-10T07:56:26;6.77;;;2.20;;
6438;SDS011;3252;52.540;13.290;2023-05-10T07:58:30;8.20;;;2.37;;
6438;SDS011;3252;52.540;13.290;2023-05-10T08:00:32;4.70;;;2.10;;
6438;SDS011;3252;52.540;13.290;2023-05-10T08:02:35;4.90;;;2.10;;
6438;SDS011;3252;52.540;13.290;2023-05-10T08:04:39;6.83;;;3.03;;
6438;SDS011;3252;52.540;13.290;2023-05-10T08:06:41;4.73;;;2.00;;
6438;SDS011;3252;52.540;13.290;2023-05-10T08:08:43;4.50;;;2.17;;
6438;SDS011;3252;52.540;13.290;2023-05-10T08:10:49;4.20;;;2.30;;
6438;SDS011;3252;52.540;13.290;2023-05-10T08:12:51;6.13;;;2.37;;
6438;SDS011;3252;52.540;13.290;2023-05-10T08:14:53;5.70;;;2.10;;
6438;SDS011;3252;52.540;13.290;2023-05-10T08:16:55;3.83;;;2.40;;
6438;SDS011;3252;52.540;13.290;2023-05-10T08:18:58;5.10;;;2.20;;
6438;SDS011;3252;52.540;13.290;2023-05-10T08:21:01;6.33;;;2.33;;
6438;SDS011;3252;52.540;13.290;2023-05-10T08:23:03;7.63;;;2.40;;
6438;SDS011;3252;52.540;13.290;2023-05-10T08:25:06;4.93;;;2.50;;
6438;SDS011;3252;52.540;13.290;2023-05-10T08:27:08;3.78;;;2.15;;
6438;SDS011;3252;52.540;13.290;2023-05-10T08:29:10;6.17;;;2.30;;
6438;SDS011;3252;52.540;13.290;2023-05-10T08:31:13;7.27;;;2.30;;
6438;SDS011;3252;52.540;13.290;2023-05-10T08:33:15;6.53;;;2.17;;
6438;SDS011;3252;52.540;13.290;2023-05-10T08:35:17;7.60;;;2.20;;
6438;SDS011;3252;52.540;13.290;2023-05-10T08:37:20;6.60;;;2.17;;
6438;SDS011;3252;52.540;13.290;2023-05-10T08:39:24;7.80;;;2.23;;
6438;SDS011;3252;52.540;13.290;2023-05-10T08:41:26;6.47;;;2.30;;
6438;SDS011;3252;52.540;13.290;2023-05-10T08:43:29;3.87;;;2.33;;
6438;SDS011;3252;52.540;13.290;2023-05-10T08:45:32;7.70;;;2.27;;
6438;SDS011;3252;52.540;13.290;2023-05-10T08:47:37;5.18;;;2.38;;
6438;SDS011;3252;52.540;13.290;2023-05-10T08:49:40;6.40;;;2.43;;
6438;SDS011;3252;52.540;13.290;2023-05-10T08:51:47;10.27;;;2.10;;
6438;SDS011;3252;52.540;13.290;2023-05-10T08:53:54;10.45;;;2.28;;
6438;SDS011;3252;52.540;13.290;2023-05-10T08:55:56;7.72;;;2.42;;
6438;SDS011;3252;52.540;13.290;2023-05-10T08:57:59;5.65;;;2.40;;
6438;SDS011;3252;52.540;13.290;2023-05-10T09:00:01;7.25;;;2.35;;
6438;SDS011;3252;52.540;13.290;2023-05-10T09:02:05;4.05;;;2.10;;
6438;SDS011;3252;52.540;13.290;2023-05-10T09:04:09;8.38;;;2.30;;
6438;SDS011;3252;52.540;13.290;2023-05-10T09:06:12;6.80;;;2.20;;
6438;SDS011;3252;52.540;13.290;2023-05-10T09:08:14;8.77;;;2.15;;
6438;SDS011;3252;52.540;13.290;2023-05-10T09:10:18;6.63;;;2.40;;
6438;SDS011;3252;52.540;13.290;2023-05-10T09:12:21;3.55;;;2.08;;
6438;SDS011;3252;52.540;13.290;2023-05-10T09:14:23;5.50;;;2.30;;
6438;SDS011;3252;52.540;13.290;2023-05-10T09:16:26;9.43;;;2.35;;
6438;SDS011;3252;52.540;13.290;2023-05-10T09:18:28;6.80;;;2.10;;
6438;SDS011;3252;52.540;13.290;2023-05-10T09:20:31;5.57;;;2.58;;
6438;SDS011;3252;52.540;13.290;2023-05-10T09:22:33;5.57;;;2.10;;
6438;SDS011;3252;52.540;13.290;2023-05-10T09:24:35;10.60;;;2.20;;
6438;SDS011;3252;52.540;13.290;2023-05-10T09:26:47;7.45;;;2.58;;
6438;SDS011;3252;52.540;13.290;2023-05-10T09:28:50;3.13;;;2.33;;
6438;SDS011;3252;52.540;13.290;2023-05-10T09:30:54;8.80;;;2.50;;
6438;SDS011;3252;52.540;13.290;2023-05-10T09:32:57;6.00;;;2.10;;
6438;SDS011;3252;52.540;13.290;2023-05-10T09:35:05;6.78;;;2.17;;
6438;SDS011;3252;52.540;13.290;2023-05-10T09:37:08;4.82;;;2.38;;
6438;SDS011;3252;52.540;13.290;2023-05-10T09:39:11;7.80;;;2.30;;
6438;SDS011;3252;52.540;13.290;2023-05-10T09:41:17;10.35;;;2.60;;
6438;SDS011;3252;52.540;13.290;2023-05-10T09:43:21;4.25;;;2.22;;
6438;SDS011;3252;52.540;13.290;2023-05-10T09:45:24;9.98;;;2.50;;
6438;SDS011;3252;52.540;13.290;2023-05-10T09:47:27;5.88;;;2.25;;
6438;SDS011;3252;52.540;13.290;2023-05-10T09:49:31;3.97;;;2.35;;
6438;SDS011;3252;52.540;13.290;2023-05-10T09:51:34;4.28;;;2.13;;
6438;SDS011;3252;52.540;13.290;2023-05-10T09:53:36;5.93;;;2.13;;
6438;SDS011;3252;52.540;13.290;2023-05-10T09:55:39;3.97;;;2.33;;
6438;SDS011;3252;52.540;13.290;2023-05-10T09:57:45;4.32;;;2.20;;
6438;SDS011;3252;52.540;13.290;2023-05-10T09:59:49;5.38;;;2.40;;
6438;SDS011;3252;52.540;13.290;2023-05-10T10:01:55;5.20;;;2.33;;
6438;SDS011;3252;52.540;13.290;2023-05-10T10:03:58;4.75;;;2.20;;
6438;SDS011;3252;52.540;13.290;2023-05-10T10:06:01;6.38;;;2.50;;
6438;SDS011;3252;52.540;13.290;2023-05-10T10:08:04;9.68;;;2.38;;
6438;SDS011;3252;52.540;13.290;2023-05-10T10:10:07;8.13;;;2.10;;
6438;SDS011;3252;52.540;13.290;2023-05-10T10:12:12;5.30;;;2.08;;
6438;SDS011;3252;52.540;13.290;2023-05-10T10:14:14;2.88;;;2.10;;
6438;SDS011;3252;52.540;13.290;2023-05-10T10:16:20;6.80;;;2.20;;
6438;SDS011;3252;52.540;13.290;2023-05-10T10:18:23;7.80;;;2.50;;
6438;SDS011;3252;52.540;13.290;2023-05-10T10:20:27;7.13;;;2.25;;
6438;SDS011;3252;52.540;13.290;2023-05-10T10:22:30;6.10;;;2.22;;
6438;SDS011;3252;52.540;13.290;2023-05-10T10:24:32;5.10;;;2.38;;
6438;SDS011;3252;52.540;13.290;2023-05-10T10:26:34;10.27;;;2.25;;
6438;SDS011;3252;52.540;13.290;2023-05-10T10:28:39;4.60;;;2.20;;
6438;SDS011;3252;52.540;13.290;2023-05-10T10:30:50;5.25;;;2.30;;
6438;SDS011;3252;52.540;13.290;2023-05-10T10:33:01;6.05;;;2.20;;
6438;SDS011;3252;52.540;13.290;2023-05-10T10:35:15;8.05;;;2.30;;
6438;SDS011;3252;52.540;13.290;2023-05-10T10:37:17;9.85;;;2.10;;
6438;SDS011;3252;52.540;13.290;2023-05-10T10:39:20;4.60;;;2.13;;
6438;SDS011;3252;52.540;13.290;2023-05-10T10:41:27;4.45;;;2.17;;
6438;SDS011;3252;52.540;13.290;2023-05-10T10:43:31;5.03;;;2.00;;
6438;SDS011;3252;52.540;13.290;2023-05-10T10:45:33;4.07;;;2.25;;
6438;SDS011;3252;52.540;13.290;2023-05-10T10:47:35;3.25;;;2.00;;
6438;SDS011;3252;52.540;13.290;2023-05-10T10:49:42;10.27;;;2.30;;
6438;SDS011;3252;52.540;13.290;2023-05-10T10:54:21;3.05;;;1.90;;
6438;SDS011;3252;52.540;13.290;2023-05-10T10:56:37;3.42;;;2.08;;
6438;SDS011;3252;52.540;13.290;2023-05-10T10:58:39;6.07;;;2.10;;
6438;SDS011;3252;52.540;13.290;2023-05-10T11:00:42;4.43;;;2.10;;
6438;SDS011;3252;52.540;13.290;2023-05-10T11:02:45;8.77;;;2.13;;
6438;SDS011;3252;52.540;13.290;2023-05-10T11:04:49;7.60;;;2.33;;
6438;SDS011;3252;52.540;13.290;2023-05-10T11:06:51;5.50;;;2.05;;
6438;SDS011;3252;52.540;13.290;2023-05-10T11:09:17;5.82;;;2.20;;
6438;SDS011;3252;52.540;13.290;2023-05-10T11:11:21;4.80;;;2.33;;
6438;SDS011;3252;52.540;13.290;2023-05-10T11:13:31;3.85;;;2.03;;
6438;SDS011;3252;52.540;13.290;2023-05-10T11:15:34;4.85;;;2.17;;
6438;SDS011;3252;52.540;13.290;2023-05-10T11:17:37;6.15;;;2.00;;
6438;SDS011;3252;52.540;13.290;2023-05-10T11:19:53;4.45;;;2.22;;
6438;SDS011;3252;52.540;13.290;2023-05-10T11:22:13;3.88;;;2.22;;
6438;SDS011;3252;52.540;13.290;2023-05-10T11:24:16;6.35;;;2.15;;
6438;SDS011;3252;52.540;13.290;2023-05-10T11:26:19;4.80;;;2.13;;
6438;SDS011;3252;52.540;13.290;2023-05-10T11:28:25;9.18;;;2.35;;
6438;SDS011;3252;52.540;13.290;2023-05-10T11:30:30;5.88;;;2.05;;
6438;SDS011;3252;52.540;13.290;2023-05-10T11:32:32;8.82;;;2.42;;
6438;SDS011;3252;52.540;13.290;2023-05-10T11:34:35;3.50;;;1.80;;
6438;SDS011;3252;52.540;13.290;2023-05-10T11:36:37;5.78;;;1.88;;
6438;SDS011;3252;52.540;13.290;2023-05-10T11:38:39;7.40;;;2.13;;
6438;SDS011;3252;52.540;13.290;2023-05-10T11:40:42;11.02;;;1.80;;
6438;SDS011;3252;52.540;13.290;2023-05-10T11:42:44;5.57;;;2.30;;
6438;SDS011;3252;52.540;13.290;2023-05-10T11:44:46;9.00;;;1.92;;
6438;SDS011;3252;52.540;13.290;2023-05-10T11:46:50;5.35;;;2.20;;
6438;SDS011;3252;52.540;13.290;2023-05-10T11:48:55;3.40;;;1.90;;
6438;SDS011;3252;52.540;13.290;2023-05-10T11:51:01;2.67;;;2.05;;
6438;SDS011;3252;52.540;13.290;2023-05-10T11:53:03;3.97;;;2.08;;
6438;SDS011;3252;52.540;13.290;2023-05-10T11:55:05;3.63;;;1.80;;
6438;SDS011;3252;52.540;13.290;2023-05-10T11:57:08;7.55;;;2.20;;
6438;SDS011;3252;52.540;13.290;2023-05-10T11:59:10;2.67;;;1.80;;
6438;SDS011;3252;52.540;13.290;2023-05-10T12:01:16;4.72;;;1.70;;
6438;SDS011;3252;52.540;13.290;2023-05-10T12:03:19;6.53;;;1.83;;
6438;SDS011;3252;52.540;13.290;2023-05-10T12:05:21;9.60;;;2.15;;
6438;SDS011;3252;52.540;13.290;2023-05-10T12:07:25;7.35;;;1.92;;
6438;SDS011;3252;52.540;13.290;2023-05-10T12:09:27;5.47;;;1.92;;
6438;SDS011;3252;52.540;13.290;2023-05-10T12:11:29;5.97;;;1.95;;
6438;SDS011;3252;52.540;13.290;2023-05-10T12:13:32;5.60;;;2.20;;
6438;SDS011;3252;52.540;13.290;2023-05-10T12:15:38;4.20;;;1.80;;
6438;SDS011;3252;52.540;13.290;2023-05-10T12:17:40;2.05;;;1.50;;
6438;SDS011;3252;52.540;13.290;2023-05-10T12:19:46;7.88;;;2.00;;
6438;SDS011;3252;52.540;13.290;2023-05-10T12:21:48;6.07;;;2.35;;
6438;SDS011;3252;52.540;13.290;2023-05-10T12:23:51;7.32;;;2.10;;
6438;SDS011;3252;52.540;13.290;2023-05-10T12:26:01;6.53;;;2.00;;
6438;SDS011;3252;52.540;13.290;2023-05-10T12:28:04;4.57;;;2.20;;
6438;SDS011;3252;52.540;13.290;2023-05-10T12:30:08;5.13;;;3.53;;
6438;SDS011;3252;52.540;13.290;2023-05-10T12:32:10;6.07;;;2.00;;
6438;SDS011;3252;52.540;13.290;2023-05-10T12:34:21;5.20;;;2.08;;
6438;SDS011;3252;52.540;13.290;2023-05-10T12:36:26;5.90;;;1.75;;
6438;SDS011;3252;52.540;13.290;2023-05-10T12:38:29;5.95;;;1.92;;
6438;SDS011;3252;52.540;13.290;2023-05-10T12:40:34;5.85;;;1.90;;
6438;SDS011;3252;52.540;13.290;2023-05-10T12:42:36;5.53;;;2.25;;